Time;durP1;ratioP1;P1;durP2;ratioP2;P2;SDS_P1;SDS_P2;PMS_P1;PMS_P2;Temp;Humidity;BMP_temperature;BMP_pressure;BME280_temperature;BME280_humidity;BME280_pressure;Samples;Min_cycle;Max_cycle;Signal;HPM_P1;HPM_P2
2022/09/20 00:00:38;;;;;;;;;;;8.80;99.90;;;;;;5072668;28;19924;-72
2022/09/20 00:03:03;;;;;;;;;;;8.70;99.90;;;;;;5056727;28;19928;-72
2022/09/20 00:05:31;;;;;;;;;;;8.70;99.90;;;;;;5069331;28;19927;-72
2022/09/20 00:07:57;;;;;;;;;;;8.70;99.90;;;;;;5073744;28;20028;-72
2022/09/20 00:10:23;;;;;;;;;;;8.70;99.90;;;;;;5057010;28;19967;-72
2022/09/20 00:12:49;;;;;;;;;;;8.70;99.90;;;;;;5074681;28;19924;-72
2022/09/20 00:15:14;;;;;;;;;;;8.70;99.90;;;;;;5070544;28;20617;-72
2022/09/20 00:17:39;;;;;;;;;;;8.70;99.90;;;;;;5068257;28;19966;-72
2022/09/20 00:20:05;;;;;;;;;;;8.70;99.90;;;;;;5072309;28;19931;-72
2022/09/20 00:22:31;;;;;;;;;;;8.60;99.90;;;;;;5072745;28;19927;-72
2022/09/20 00:24:56;;;;;;;;;;;8.60;99.90;;;;;;5072170;28;19928;-72
2022/09/20 00:27:22;;;;;;;;;;;8.60;99.90;;;;;;5054082;28;20358;-72
2022/09/20 00:29:47;;;;;;;;;;;8.60;99.90;;;;;;5070587;28;20006;-72
2022/09/20 00:32:13;;;;;;;;;;;8.60;99.90;;;;;;5069832;28;19931;-72
2022/09/20 00:37:22;;;;;;;;;;;8.60;99.90;;;;;;5067777;28;19924;-72
2022/09/20 00:39:48;;;;;;;;;;;8.60;99.90;;;;;;5070490;28;19939;-72
2022/09/20 00:42:13;;;;;;;;;;;8.60;99.90;;;;;;5072703;28;19920;-72
2022/09/20 00:44:54;;;;;;;;;;;8.50;99.90;;;;;;5065939;28;19931;-72
2022/09/20 00:47:35;;;;;;;;;;;8.50;99.90;;;;;;5069318;28;20495;-72
2022/09/20 00:50:04;;;;;;;;;;;8.50;99.90;;;;;;5070095;28;19920;-72
2022/09/20 00:52:30;;;;;;;;;;;8.50;99.90;;;;;;5069338;28;19931;-72
2022/09/20 00:54:57;;;;;;;;;;;8.50;99.90;;;;;;5088215;28;19927;-72
2022/09/20 00:57:22;;;;;;;;;;;8.50;99.90;;;;;;5056783;28;20389;-72
2022/09/20 00:59:49;;;;;;;;;;;8.50;99.90;;;;;;5061525;28;19963;-72
2022/09/20 01:02:16;;;;;;;;;;;8.40;99.90;;;;;;5073262;28;19920;-72
2022/09/20 01:04:43;;;;;;;;;;;8.50;99.90;;;;;;5044141;28;19929;-72
2022/09/20 01:07:10;;;;;;;;;;;8.40;99.90;;;;;;5065992;28;19929;-72
2022/09/20 01:09:35;;;;;;;;;;;8.40;99.90;;;;;;5070966;28;19920;-72
2022/09/20 01:12:04;;;;;;;;;;;8.40;99.90;;;;;;5066715;28;20292;-72
2022/09/20 01:14:30;;;;;;;;;;;8.30;99.90;;;;;;5088563;28;19966;-72
2022/09/20 01:16:58;;;;;;;;;;;8.30;99.90;;;;;;5071412;28;19962;-72
2022/09/20 01:19:46;;;;;;;;;;;8.20;99.90;;;;;;5053552;28;19921;-72
2022/09/20 01:22:20;;;;;;;;;;;8.20;99.90;;;;;;5039939;28;19920;-72
2022/09/20 01:24:57;;;;;;;;;;;8.10;99.90;;;;;;5066261;28;19928;-72
2022/09/20 01:27:55;;;;;;;;;;;8.10;99.90;;;;;;5068669;28;20242;-72
2022/09/20 01:30:22;;;;;;;;;;;8.00;99.90;;;;;;5039274;28;20365;-72
2022/09/20 01:32:57;;;;;;;;;;;8.10;99.90;;;;;;5072030;28;19955;-72
2022/09/20 01:35:24;;;;;;;;;;;8.00;99.90;;;;;;5069243;28;19924;-72
2022/09/20 01:38:25;;;;;;;;;;;7.90;99.90;;;;;;5072588;28;19927;-72
2022/09/20 01:41:02;;;;;;;;;;;7.90;99.90;;;;;;4988111;28;19932;-72
2022/09/20 01:43:33;;;;;;;;;;;7.80;99.90;;;;;;5054745;28;19920;-72
2022/09/20 01:46:02;;;;;;;;;;;7.80;99.90;;;;;;5065681;28;20369;-72
2022/09/20 01:48:36;;;;;;;;;;;7.80;99.90;;;;;;5053301;28;19920;-72
2022/09/20 01:51:25;;;;;;;;;;;7.70;99.90;;;;;;5068509;28;19920;-72
2022/09/20 01:54:09;;;;;;;;;;;7.70;99.90;;;;;;5028049;28;20326;-72
2022/09/20 01:56:54;;;;;;;;;;;7.70;99.90;;;;;;5061363;28;19921;-72
2022/09/20 01:59:35;;;;;;;;;;;7.60;99.90;;;;;;5063153;28;19935;-72
2022/09/20 02:02:00;;;;;;;;;;;7.60;99.90;;;;;;5070491;28;19951;-72
2022/09/20 02:04:44;;;;;;;;;;;7.50;99.90;;;;;;5056242;28;19928;-72
2022/09/20 02:07:16;;;;;;;;;;;7.50;99.90;;;;;;5071964;28;19924;-72
2022/09/20 02:09:42;;;;;;;;;;;7.50;99.90;;;;;;5073391;28;19920;-72
2022/09/20 02:12:17;;;;;;;;;;;7.40;99.90;;;;;;5075803;28;20312;-72
2022/09/20 02:15:02;;;;;;;;;;;7.40;99.90;;;;;;5058723;28;20410;-72
2022/09/20 02:17:44;;;;;;;;;;;7.40;99.90;;;;;;5070885;28;19923;-72
2022/09/20 02:20:09;;;;;;;;;;;7.40;99.90;;;;;;5070520;28;19924;-72
2022/09/20 02:22:34;;;;;;;;;;;7.30;99.90;;;;;;5043873;28;20299;-72
2022/09/20 02:25:10;;;;;;;;;;;7.30;99.90;;;;;;5071058;28;19924;-72
2022/09/20 02:27:45;;;;;;;;;;;7.30;99.90;;;;;;5073923;28;19931;-72
2022/09/20 02:30:11;;;;;;;;;;;7.20;99.90;;;;;;5058524;28;19920;-72
2022/09/20 02:32:55;;;;;;;;;;;7.10;99.90;;;;;;5074560;28;19935;-72
2022/09/20 02:35:33;;;;;;;;;;;7.00;99.90;;;;;;5076532;28;19920;-72
2022/09/20 02:37:58;;;;;;;;;;;7.00;99.90;;;;;;5074808;28;20519;-72
2022/09/20 02:40:31;;;;;;;;;;;7.00;99.90;;;;;;5071943;28;20014;-72
2022/09/20 02:43:02;;;;;;;;;;;7.00;99.90;;;;;;5069999;28;19928;-72
2022/09/20 02:45:37;;;;;;;;;;;6.90;99.90;;;;;;5071078;28;19924;-72
2022/09/20 02:48:03;;;;;;;;;;;6.90;99.90;;;;;;5066967;28;19928;-72
2022/09/20 02:50:48;;;;;;;;;;;6.80;99.90;;;;;;5057002;28;19928;-72
2022/09/20 02:53:23;;;;;;;;;;;6.80;99.90;;;;;;5069052;28;19927;-72
2022/09/20 02:55:59;;;;;;;;;;;6.80;99.90;;;;;;5070043;28;19920;-72
2022/09/20 02:58:33;;;;;;;;;;;6.80;99.90;;;;;;5065686;28;19997;-72
2022/09/20 03:01:18;;;;;;;;;;;6.80;99.90;;;;;;5059306;28;19921;-73
2022/09/20 03:03:43;;;;;;;;;;;6.80;99.90;;;;;;5072315;28;20549;-72
2022/09/20 03:06:27;;;;;;;;;;;6.80;99.90;;;;;;5069910;28;19928;-72
2022/09/20 03:09:13;;;;;;;;;;;6.80;99.90;;;;;;5072636;28;19932;-72
2022/09/20 03:11:59;;;;;;;;;;;6.80;99.90;;;;;;5074057;28;19931;-72
2022/09/20 03:14:36;;;;;;;;;;;6.80;99.90;;;;;;5070312;28;20437;-72
2022/09/20 03:17:02;;;;;;;;;;;6.70;99.90;;;;;;5053856;28;19973;-72
2022/09/20 03:19:27;;;;;;;;;;;6.80;99.90;;;;;;5070717;28;20354;-72
2022/09/20 03:21:53;;;;;;;;;;;6.80;99.90;;;;;;5072810;28;19927;-72
2022/09/20 03:24:37;;;;;;;;;;;6.80;99.90;;;;;;5070737;28;20015;-72
2022/09/20 03:27:15;;;;;;;;;;;6.80;99.90;;;;;;5064215;28;19933;-72
2022/09/20 03:29:54;;;;;;;;;;;6.80;99.90;;;;;;5066367;28;19956;-72
2022/09/20 03:32:49;;;;;;;;;;;6.80;99.90;;;;;;5060291;28;20266;-72
2022/09/20 03:35:15;;;;;;;;;;;6.80;99.90;;;;;;5015912;28;19933;-72
2022/09/20 03:37:52;;;;;;;;;;;6.80;99.90;;;;;;5053195;28;19984;-72
2022/09/20 03:40:39;;;;;;;;;;;6.80;99.90;;;;;;5058225;28;20011;-72
2022/09/20 03:43:17;;;;;;;;;;;6.80;99.90;;;;;;5069869;28;19927;-72
2022/09/20 03:45:48;;;;;;;;;;;6.70;99.90;;;;;;5052421;28;19940;-72
2022/09/20 03:48:14;;;;;;;;;;;6.70;99.90;;;;;;5054475;28;19928;-72
2022/09/20 03:50:50;;;;;;;;;;;6.70;99.90;;;;;;5057549;28;20392;-72
2022/09/20 03:53:34;;;;;;;;;;;6.70;99.90;;;;;;5069241;28;19920;-72
2022/09/20 03:56:21;;;;;;;;;;;6.70;99.90;;;;;;5065986;28;19924;-72
2022/09/20 03:58:49;;;;;;;;;;;6.60;99.90;;;;;;5055248;28;19928;-72
2022/09/20 04:01:31;;;;;;;;;;;6.60;99.90;;;;;;5072327;28;20646;-72
2022/09/20 04:04:10;;;;;;;;;;;6.60;99.90;;;;;;5073094;28;19930;-72
2022/09/20 04:06:36;;;;;;;;;;;6.60;99.90;;;;;;5062177;28;20337;-72
2022/09/20 04:09:01;;;;;;;;;;;6.60;99.90;;;;;;5053614;28;19924;-72
2022/09/20 04:11:34;;;;;;;;;;;6.60;99.90;;;;;;5078144;28;20324;-72
2022/09/20 04:14:05;;;;;;;;;;;6.60;99.90;;;;;;5055142;28;19971;-72
2022/09/20 04:16:37;;;;;;;;;;;6.70;99.90;;;;;;5072014;28;19955;-72
2022/09/20 04:19:08;;;;;;;;;;;6.70;99.90;;;;;;5074313;28;19930;-72
2022/09/20 04:21:38;;;;;;;;;;;6.80;99.90;;;;;;5073327;28;19924;-72
2022/09/20 04:24:22;;;;;;;;;;;6.80;99.90;;;;;;5071338;28;19938;-72
2022/09/20 04:26:50;;;;;;;;;;;6.90;99.90;;;;;;5072180;28;20019;-72
2022/09/20 04:29:25;;;;;;;;;;;7.00;99.90;;;;;;5072045;28;20027;-72
2022/09/20 04:32:09;;;;;;;;;;;7.00;99.90;;;;;;5070175;28;20428;-72
2022/09/20 04:37:28;;;;;;;;;;;7.20;99.90;;;;;;5051645;28;19924;-72
2022/09/20 04:40:07;;;;;;;;;;;7.20;99.90;;;;;;5067950;28;20057;-72
2022/09/20 04:42:35;;;;;;;;;;;7.30;99.90;;;;;;5052785;28;20050;-72
2022/09/20 04:45:06;;;;;;;;;;;7.40;99.90;;;;;;5053812;28;19935;-72
2022/09/20 04:47:51;;;;;;;;;;;7.40;99.90;;;;;;5053372;28;20325;-72
2022/09/20 04:50:41;;;;;;;;;;;7.40;99.90;;;;;;5051478;28;19949;-72
2022/09/20 04:53:26;;;;;;;;;;;7.50;99.90;;;;;;5054007;28;19929;-72
2022/09/20 04:55:59;;;;;;;;;;;7.60;99.90;;;;;;5068616;28;19943;-72
2022/09/20 04:58:35;;;;;;;;;;;7.60;99.90;;;;;;5073563;28;21504;-72
2022/09/20 05:01:21;;;;;;;;;;;7.70;99.90;;;;;;5053233;28;19927;-72
2022/09/20 05:03:50;;;;;;;;;;;7.70;99.90;;;;;;5070686;28;19924;-72
2022/09/20 05:06:34;;;;;;;;;;;7.70;99.90;;;;;;5071878;28;19924;-72
2022/09/20 05:09:12;;;;;;;;;;;7.70;99.90;;;;;;5072274;28;19928;-72
2022/09/20 05:11:37;;;;;;;;;;;7.80;99.90;;;;;;5072615;28;19920;-72
2022/09/20 05:14:21;;;;;;;;;;;7.80;99.90;;;;;;5071032;28;19985;-72
2022/09/20 05:16:53;;;;;;;;;;;7.80;99.90;;;;;;5045952;28;19924;-72
2022/09/20 05:19:33;;;;;;;;;;;7.80;99.90;;;;;;5073492;28;19920;-72
2022/09/20 05:22:28;;;;;;;;;;;7.90;99.90;;;;;;5071453;28;20389;-72
2022/09/20 05:25:05;;;;;;;;;;;7.90;99.90;;;;;;5065688;28;19925;-72
2022/09/20 05:27:51;;;;;;;;;;;7.90;99.90;;;;;;5033940;28;19935;-72
2022/09/20 05:30:24;;;;;;;;;;;7.90;99.90;;;;;;5050339;28;19932;-72
2022/09/20 05:32:56;;;;;;;;;;;7.90;99.90;;;;;;5063797;28;19931;-72
2022/09/20 05:35:25;;;;;;;;;;;7.90;99.90;;;;;;5045328;28;19927;-72
2022/09/20 05:37:54;;;;;;;;;;;8.00;99.90;;;;;;5047768;28;19928;-72
2022/09/20 05:40:22;;;;;;;;;;;8.10;99.90;;;;;;5074022;23;19924;-73
2022/09/20 05:42:55;;;;;;;;;;;8.10;99.90;;;;;;5069768;28;19928;-74
2022/09/20 05:45:45;;;;;;;;;;;8.20;99.90;;;;;;5070793;28;20317;-72
2022/09/20 05:48:23;;;;;;;;;;;8.20;99.90;;;;;;5073042;28;20002;-73
2022/09/20 05:50:57;;;;;;;;;;;8.30;99.90;;;;;;5067862;28;20602;-73
2022/09/20 05:53:35;;;;;;;;;;;8.50;99.90;;;;;;5045763;28;19935;-72
2022/09/20 05:56:18;;;;;;;;;;;8.50;99.90;;;;;;5065065;28;20404;-73
2022/09/20 05:58:44;;;;;;;;;;;8.60;99.90;;;;;;5063242;28;19924;-73
2022/09/20 06:01:18;;;;;;;;;;;8.70;99.90;;;;;;5068913;28;20381;-73
2022/09/20 06:03:53;;;;;;;;;;;8.80;99.90;;;;;;5067069;28;19920;-72
2022/09/20 06:06:29;;;;;;;;;;;8.80;99.90;;;;;;5067225;28;19937;-73
2022/09/20 06:09:00;;;;;;;;;;;8.90;99.90;;;;;;5059816;28;19931;-72
2022/09/20 06:11:32;;;;;;;;;;;9.00;99.90;;;;;;5071885;28;19931;-73
2022/09/20 06:14:04;;;;;;;;;;;9.10;99.90;;;;;;5052539;28;20679;-73
2022/09/20 06:16:44;;;;;;;;;;;9.20;99.90;;;;;;5052242;28;19938;-73
2022/09/20 06:19:31;;;;;;;;;;;9.20;99.90;;;;;;5062033;28;19920;-73
2022/09/20 06:22:00;;;;;;;;;;;9.30;99.90;;;;;;5022284;28;20008;-73
2022/09/20 06:24:35;;;;;;;;;;;9.40;99.90;;;;;;5076030;28;19924;-73
2022/09/20 06:27:03;;;;;;;;;;;9.50;99.90;;;;;;5076306;28;20280;-73
2022/09/20 06:29:32;;;;;;;;;;;9.50;99.90;;;;;;5076065;28;20384;-73
2022/09/20 06:31:57;;;;;;;;;;;9.50;99.90;;;;;;5076028;28;19928;-73
2022/09/20 06:34:23;;;;;;;;;;;9.60;99.90;;;;;;5073705;28;19921;-73
2022/09/20 06:42:37;;;;;;;;;;;9.50;99.90;;;;;;5067783;28;20275;-73
2022/09/20 06:45:02;;;;;;;;;;;9.60;99.90;;;;;;5074394;28;19928;-73
2022/09/20 06:47:28;;;;;;;;;;;10.40;99.90;;;;;;5073596;28;19924;-74
2022/09/20 06:49:54;;;;;;;;;;;11.90;99.90;;;;;;5075673;28;19997;-74
2022/09/20 06:52:21;;;;;;;;;;;13.40;99.90;;;;;;5072270;28;19924;-73
2022/09/20 06:54:48;;;;;;;;;;;14.70;99.90;;;;;;5072476;28;20403;-73
2022/09/20 06:57:15;;;;;;;;;;;16.10;99.90;;;;;;5072545;28;19958;-73
2022/09/20 06:59:41;;;;;;;;;;;;;;;;;;5074822;28;19920;-74
2022/09/20 07:02:07;;;;;;;;;;;18.00;99.90;;;;;;5070501;28;19998;-73
2022/09/20 07:04:33;;;;;;;;;;;17.40;99.90;;;;;;5070034;28;20308;-72
2022/09/20 07:07:00;;;;;;;;;;;16.90;99.90;;;;;;5072819;28;19965;-72
2022/09/20 07:09:25;;;;;;;;;;;16.20;99.90;;;;;;5070429;28;19920;-72
2022/09/20 07:11:51;;;;;;;;;;;16.10;99.90;;;;;;5056917;28;19942;-72
2022/09/20 07:14:18;;;;;;;;;;;15.90;99.90;;;;;;5074978;28;20010;-73
2022/09/20 07:16:43;;;;;;;;;;;15.30;99.90;;;;;;5058021;28;19920;-73
2022/09/20 07:19:09;;;;;;;;;;;14.80;99.90;;;;;;5055063;28;19928;-72
2022/09/20 07:21:34;;;;;;;;;;;14.40;99.90;;;;;;5063009;28;20258;-72
2022/09/20 07:24:00;;;;;;;;;;;14.00;99.90;;;;;;5075112;28;19946;-72
2022/09/20 07:26:27;;;;;;;;;;;13.60;99.90;;;;;;5074955;28;19928;-72
2022/09/20 07:28:53;;;;;;;;;;;13.40;99.90;;;;;;5074361;28;19926;-72
2022/09/20 07:31:19;;;;;;;;;;;13.20;99.90;;;;;;5066367;28;19928;-72
2022/09/20 07:33:45;;;;;;;;;;;13.10;99.90;;;;;;5068073;28;20560;-73
2022/09/20 07:36:11;;;;;;;;;;;12.90;99.90;;;;;;5072588;28;19920;-73
2022/09/20 07:38:37;;;;;;;;;;;12.70;99.90;;;;;;5076155;28;19925;-71
2022/09/20 07:41:02;;;;;;;;;;;12.80;99.90;;;;;;5072080;28;19924;-73
2022/09/20 07:43:29;;;;;;;;;;;12.80;99.90;;;;;;5072514;28;19970;-71
2022/09/20 07:45:54;;;;;;;;;;;12.80;99.90;;;;;;5072479;28;20014;-71
2022/09/20 07:48:24;;;;;;;;;;;12.90;99.90;;;;;;5055638;28;20437;-71
2022/09/20 07:50:51;;;;;;;;;;;13.00;99.90;;;;;;5076204;28;19928;-71
2022/09/20 07:53:16;;;;;;;;;;;13.10;99.90;;;;;;5066072;28;19924;-71
2022/09/20 07:55:42;;;;;;;;;;;13.10;99.90;;;;;;5067911;28;19947;-71
2022/09/20 07:58:07;;;;;;;;;;;13.30;99.90;;;;;;5063828;28;19935;-73
2022/09/20 08:00:33;;;;;;;;;;;13.40;99.90;;;;;;5058298;28;20340;-71
2022/09/20 08:02:59;;;;;;;;;;;13.40;99.90;;;;;;5066855;28;19928;-71
2022/09/20 08:05:24;;;;;;;;;;;13.40;99.90;;;;;;5068519;28;20014;-71
2022/09/20 08:07:50;;;;;;;;;;;13.50;99.90;;;;;;5064160;28;20007;-71
2022/09/20 08:10:15;;;;;;;;;;;13.50;99.90;;;;;;5067638;28;19927;-71
2022/09/20 08:12:41;;;;;;;;;;;13.60;99.90;;;;;;5070109;28;19924;-72
2022/09/20 08:15:07;;;;;;;;;;;13.60;99.90;;;;;;5071694;28;19978;-71
2022/09/20 08:17:32;;;;;;;;;;;13.70;99.90;;;;;;5072964;28;20018;-71
2022/09/20 08:19:58;;;;;;;;;;;13.70;99.90;;;;;;5071788;28;20023;-71
2022/09/20 08:22:23;;;;;;;;;;;13.80;99.90;;;;;;5054577;28;20266;-71
2022/09/20 08:24:50;;;;;;;;;;;14.00;99.90;;;;;;5054222;28;19925;-71
2022/09/20 08:27:16;;;;;;;;;;;14.10;99.90;;;;;;5069504;28;19924;-71
2022/09/20 08:29:41;;;;;;;;;;;14.10;99.90;;;;;;5074315;28;19920;-71
2022/09/20 08:32:07;;;;;;;;;;;14.10;99.90;;;;;;5074595;28;19920;-71
2022/09/20 08:34:32;;;;;;;;;;;14.10;99.90;;;;;;5074069;28;19970;-71
2022/09/20 08:36:58;;;;;;;;;;;14.10;99.90;;;;;;5092500;28;19946;-71
2022/09/20 08:39:23;;;;;;;;;;;14.00;99.90;;;;;;5073818;28;19924;-71
2022/09/20 08:42:04;;;;;;;;;;;13.90;99.90;;;;;;5067661;28;19931;-71
2022/09/20 08:44:32;;;;;;;;;;;13.80;99.90;;;;;;5062081;28;19934;-71
2022/09/20 08:47:17;;;;;;;;;;;13.90;99.90;;;;;;5059040;28;20381;-71
2022/09/20 08:49:43;;;;;;;;;;;13.90;99.90;;;;;;5045450;28;19997;-71
2022/09/20 08:52:13;;;;;;;;;;;14.00;99.90;;;;;;5070864;28;19920;-71
2022/09/20 08:54:39;;;;;;;;;;;14.20;99.90;;;;;;5071076;28;20381;-72
2022/09/20 08:57:09;;;;;;;;;;;14.30;99.90;;;;;;5065760;28;19927;-72
2022/09/20 08:59:35;;;;;;;;;;;14.40;99.90;;;;;;5068823;28;19920;-72
2022/09/20 09:02:00;;;;;;;;;;;14.50;99.90;;;;;;5068532;28;19934;-71
2022/09/20 09:04:35;;;;;;;;;;;14.60;99.90;;;;;;5068783;28;20284;-70
2022/09/20 09:07:01;;;;;;;;;;;14.60;99.90;;;;;;5072620;28;20042;-71
2022/09/20 09:09:28;;;;;;;;;;;14.60;99.90;;;;;;5071616;28;19959;-71
2022/09/20 09:11:54;;;;;;;;;;;14.70;99.90;;;;;;5073471;28;20354;-70
2022/09/20 09:17:13;;;;;;;;;;;15.00;99.90;;;;;;5074907;28;19920;-70
2022/09/20 09:19:45;;;;;;;;;;;15.00;99.90;;;;;;5057296;28;19928;-70
2022/09/20 09:22:16;;;;;;;;;;;15.10;99.90;;;;;;5064693;28;19920;-70
2022/09/20 09:24:41;;;;;;;;;;;15.20;99.90;;;;;;5059518;28;19931;-70
2022/09/20 09:27:12;;;;;;;;;;;15.30;99.90;;;;;;5077683;28;20308;-70
2022/09/20 09:29:47;;;;;;;;;;;15.30;99.90;;;;;;5077671;28;19931;-71
2022/09/20 09:32:18;;;;;;;;;;;15.40;99.90;;;;;;5061169;28;19941;-71
2022/09/20 09:34:44;;;;;;;;;;;15.70;99.90;;;;;;5077644;28;20010;-71
2022/09/20 09:37:29;;;;;;;;;;;15.90;99.90;;;;;;5060772;28;20031;-71
2022/09/20 09:40:04;;;;;;;;;;;16.10;99.90;;;;;;5074995;28;20533;-70
2022/09/20 09:42:30;;;;;;;;;;;16.20;99.90;;;;;;5111349;28;19926;-71
2022/09/20 09:45:12;;;;;;;;;;;16.10;99.90;;;;;;5076442;28;19982;-70
2022/09/20 09:47:37;;;;;;;;;;;16.00;99.90;;;;;;5068468;28;20294;-71
2022/09/20 09:50:03;;;;;;;;;;;15.90;99.90;;;;;;5058947;28;19927;-71
2022/09/20 09:52:32;;;;;;;;;;;15.80;99.90;;;;;;5068951;28;19925;-70
2022/09/20 09:54:58;;;;;;;;;;;15.60;99.90;;;;;;5072686;28;20020;-70
2022/09/20 09:57:43;;;;;;;;;;;15.50;99.90;;;;;;5076215;28;20374;-71
2022/09/20 10:00:13;;;;;;;;;;;15.50;99.90;;;;;;5071617;28;20374;-71
2022/09/20 10:02:57;;;;;;;;;;;15.50;99.90;;;;;;5069696;28;19928;-70
2022/09/20 10:05:38;;;;;;;;;;;15.40;99.90;;;;;;5072441;28;19930;-67
2022/09/20 10:08:22;;;;;;;;;;;15.60;99.90;;;;;;5050829;28;20014;-66
2022/09/20 10:11:07;;;;;;;;;;;15.80;99.90;;;;;;5076139;28;19924;-67
2022/09/20 10:13:49;;;;;;;;;;;16.00;97.80;;;;;;5074987;28;19967;-67
2022/09/20 10:16:24;;;;;;;;;;;16.10;99.90;;;;;;5074870;28;19924;-67
2022/09/20 10:19:08;;;;;;;;;;;16.20;98.30;;;;;;5076711;28;19973;-66
2022/09/20 10:21:40;;;;;;;;;;;16.40;99.10;;;;;;5076528;28;19931;-66
2022/09/20 10:24:15;;;;;;;;;;;16.60;99.90;;;;;;5094696;28;20011;-66
2022/09/20 10:26:42;;;;;;;;;;;16.80;99.60;;;;;;5074841;28;19932;-66
2022/09/20 10:29:25;;;;;;;;;;;17.00;99.00;;;;;;5074174;28;19950;-66
2022/09/20 10:31:56;;;;;;;;;;;17.00;95.80;;;;;;5075921;28;19971;-67
2022/09/20 10:34:21;;;;;;;;;;;17.10;96.40;;;;;;5056282;28;19951;-66
2022/09/20 10:36:50;;;;;;;;;;;16.80;96.20;;;;;;5055943;28;20386;-67
2022/09/20 10:39:16;;;;;;;;;;;16.70;94.90;;;;;;5061270;28;19982;-66
2022/09/20 10:45:11;;;;;;;;;;;17.00;97.40;;;;;;5087448;28;19924;-67
2022/09/20 10:47:49;;;;;;;;;;;17.10;97.80;;;;;;5063008;28;19940;-67
2022/09/20 10:50:20;;;;;;;;;;;17.10;98.10;;;;;;5074457;28;19927;-67
2022/09/20 10:52:54;;;;;;;;;;;17.20;98.40;;;;;;5067815;28;20259;-66
2022/09/20 10:55:20;;;;;;;;;;;17.30;97.30;;;;;;5060805;28;20361;-67
2022/09/20 10:57:59;;;;;;;;;;;17.40;99.10;;;;;;5069944;28;19924;-67
2022/09/20 11:00:24;;;;;;;;;;;17.00;94.40;;;;;;5070016;28;20318;-66
2022/09/20 11:03:02;;;;;;;;;;;17.30;97.00;;;;;;5073835;28;19963;-67
2022/09/20 11:05:46;;;;;;;;;;;17.40;97.60;;;;;;5059440;28;20149;-67
2022/09/20 11:08:17;;;;;;;;;;;17.50;97.00;;;;;;5066327;28;19921;-67
2022/09/20 11:10:45;;;;;;;;;;;17.60;98.00;;;;;;5075383;28;19924;-68
2022/09/20 11:13:14;;;;;;;;;;;17.60;93.50;;;;;;5074013;28;19924;-67
2022/09/20 11:15:54;;;;;;;;;;;17.50;95.20;;;;;;5087810;28;19931;-67
2022/09/20 11:18:22;;;;;;;;;;;17.60;96.10;;;;;;5069690;28;20041;-68
2022/09/20 11:21:07;;;;;;;;;;;17.90;98.30;;;;;;5092156;28;19928;-67
2022/09/20 11:23:38;;;;;;;;;;;17.90;95.30;;;;;;5074721;28;20361;-68
2022/09/20 11:26:08;;;;;;;;;;;18.00;95.50;;;;;;5074466;28;20410;-67
2022/09/20 11:29:00;;;;;;;;;;;18.10;96.70;;;;;;5061027;28;19924;-67
2022/09/20 11:31:29;;;;;;;;;;;17.80;94.40;;;;;;5081882;28;19924;-68
2022/09/20 11:33:58;;;;;;;;;;;18.20;97.10;;;;;;5057830;28;19970;-68
2022/09/20 11:36:43;;;;;;;;;;;18.20;95.70;;;;;;5060375;28;19920;-67
2022/09/20 11:39:20;;;;;;;;;;;18.10;93.60;;;;;;5061424;28;20353;-67
2022/09/20 11:41:47;;;;;;;;;;;18.10;95.60;;;;;;5086866;28;19924;-67
2022/09/20 11:44:15;;;;;;;;;;;18.20;95.50;;;;;;5073144;28;20151;-68
2022/09/20 11:46:47;;;;;;;;;;;18.50;95.00;;;;;;5069698;28;19939;-67
2022/09/20 11:49:16;;;;;;;;;;;18.70;95.20;;;;;;5074424;28;19998;-67
2022/09/20 11:52:04;;;;;;;;;;;18.90;94.90;;;;;;5070077;28;19977;-67
2022/09/20 11:54:48;;;;;;;;;;;18.90;94.10;;;;;;5084429;28;19920;-68
2022/09/20 11:57:17;;;;;;;;;;;19.20;94.00;;;;;;5060692;28;19921;-67
2022/09/20 11:59:49;;;;;;;;;;;19.30;92.40;;;;;;5068677;28;19920;-68
2022/09/20 12:02:33;;;;;;;;;;;19.00;86.90;;;;;;5068645;28;19926;-68
2022/09/20 12:05:00;;;;;;;;;;;18.20;88.10;;;;;;5086777;28;19932;-67
2022/09/20 12:07:33;;;;;;;;;;;18.10;90.50;;;;;;5070600;28;19977;-67
2022/09/20 12:10:17;;;;;;;;;;;17.80;90.00;;;;;;5079313;28;20046;-67
2022/09/20 12:12:45;;;;;;;;;;;17.90;92.20;;;;;;5072227;28;19923;-67
2022/09/20 12:15:20;;;;;;;;;;;17.80;92.80;;;;;;5072168;28;19924;-67
2022/09/20 12:17:45;;;;;;;;;;;18.00;93.40;;;;;;5091109;28;19927;-67
2022/09/20 12:20:30;;;;;;;;;;;17.90;91.70;;;;;;5076512;28;19920;-67
2022/09/20 12:23:14;;;;;;;;;;;17.70;90.40;;;;;;5064838;28;19943;-67
2022/09/20 12:25:59;;;;;;;;;;;17.50;90.80;;;;;;5066839;28;20344;-67
2022/09/20 12:28:33;;;;;;;;;;;17.40;93.80;;;;;;5087625;28;19981;-68
2022/09/20 12:31:17;;;;;;;;;;;17.30;92.10;;;;;;5091699;28;20010;-67
2022/09/20 12:34:01;;;;;;;;;;;17.20;95.10;;;;;;5091046;28;20354;-67
2022/09/20 12:36:33;;;;;;;;;;;17.20;95.80;;;;;;5091312;28;19924;-68
2022/09/20 12:39:10;;;;;;;;;;;17.20;90.40;;;;;;5071294;28;19932;-67
2022/09/20 12:41:45;;;;;;;;;;;17.50;93.70;;;;;;5073180;28;19927;-68
2022/09/20 12:44:19;;;;;;;;;;;17.80;90.10;;;;;;5091092;28;19965;-67
2022/09/20 12:46:56;;;;;;;;;;;17.90;83.50;;;;;;5057764;28;19924;-67
2022/09/20 12:55:26;;;;;;;;;;;18.50;91.60;;;;;;5070836;28;19924;-68
2022/09/20 12:57:57;;;;;;;;;;;18.20;90.70;;;;;;5077031;28;19932;-68
2022/09/20 13:00:30;;;;;;;;;;;18.10;88.60;;;;;;5068022;28;19920;-68
2022/09/20 13:02:56;;;;;;;;;;;18.30;91.60;;;;;;5069339;28;20053;-68
2022/09/20 13:05:39;;;;;;;;;;;18.10;88.10;;;;;;5072655;28;20034;-68
2022/09/20 13:08:11;;;;;;;;;;;18.10;91.30;;;;;;5062564;28;19928;-67
2022/09/20 13:10:40;;;;;;;;;;;17.90;91.90;;;;;;5070229;28;19928;-67
2022/09/20 13:13:23;;;;;;;;;;;17.90;91.90;;;;;;5089213;28;19924;-67
2022/09/20 13:15:51;;;;;;;;;;;18.00;91.70;;;;;;5070642;28;19928;-68
2022/09/20 13:18:17;;;;;;;;;;;18.10;93.30;;;;;;5066684;28;19924;-69
2022/09/20 13:20:43;;;;;;;;;;;18.20;92.60;;;;;;5066036;28;19920;-68
2022/09/20 13:23:14;;;;;;;;;;;18.20;91.90;;;;;;5073241;28;19928;-68
2022/09/20 13:25:40;;;;;;;;;;;18.10;91.90;;;;;;5050955;28;19967;-68
2022/09/20 13:28:09;;;;;;;;;;;18.10;93.20;;;;;;5072042;28;19924;-68
2022/09/20 13:30:34;;;;;;;;;;;18.20;93.90;;;;;;5072732;28;19931;-68
2022/09/20 13:33:18;;;;;;;;;;;18.30;93.60;;;;;;5095653;28;19921;-68
2022/09/20 13:35:45;;;;;;;;;;;18.30;93.30;;;;;;5052214;28;19942;-68
2022/09/20 13:38:13;;;;;;;;;;;18.30;93.00;;;;;;5060514;28;19952;-68
2022/09/20 13:40:42;;;;;;;;;;;18.30;92.50;;;;;;5072586;28;19928;-68
2022/09/20 13:43:27;;;;;;;;;;;18.40;93.20;;;;;;5070479;28;19928;-68
2022/09/20 13:45:55;;;;;;;;;;;18.10;90.30;;;;;;5060742;28;19924;-68
2022/09/20 13:48:22;;;;;;;;;;;18.00;92.20;;;;;;5054707;28;19947;-68
2022/09/20 13:50:48;;;;;;;;;;;18.10;93.80;;;;;;5079063;28;19925;-68
2022/09/20 13:53:15;;;;;;;;;;;18.10;92.90;;;;;;5087238;28;20007;-68
2022/09/20 13:55:41;;;;;;;;;;;18.00;91.20;;;;;;5072316;28;19971;-69
2022/09/20 13:58:20;;;;;;;;;;;18.10;91.50;;;;;;5070157;28;20553;-68
2022/09/20 14:00:48;;;;;;;;;;;18.20;92.80;;;;;;5089508;28;19924;-69
2022/09/20 14:03:15;;;;;;;;;;;18.50;93.70;;;;;;5061849;28;20014;-68
2022/09/20 14:05:45;;;;;;;;;;;18.40;92.20;;;;;;5069987;28;20377;-68
2022/09/20 14:08:20;;;;;;;;;;;18.40;92.30;;;;;;5082404;28;20537;-68
2022/09/20 14:10:46;;;;;;;;;;;18.30;91.20;;;;;;5058523;28;20541;-69
2022/09/20 14:13:15;;;;;;;;;;;18.20;91.60;;;;;;5077747;28;19924;-68
2022/09/20 14:15:42;;;;;;;;;;;18.00;93.00;;;;;;5051388;28;19931;-69
2022/09/20 14:18:12;;;;;;;;;;;17.90;93.30;;;;;;5077706;28;20103;-68
2022/09/20 14:20:40;;;;;;;;;;;18.10;93.20;;;;;;5105274;28;20011;-68
2022/09/20 14:23:15;;;;;;;;;;;18.10;92.80;;;;;;5059688;28;19928;-69
2022/09/20 14:25:40;;;;;;;;;;;18.10;93.20;;;;;;5075622;28;20281;-68
2022/09/20 14:28:17;;;;;;;;;;;18.10;94.30;;;;;;5093284;28;19924;-69
2022/09/20 14:30:44;;;;;;;;;;;17.70;92.40;;;;;;5066345;28;19927;-68
2022/09/20 14:33:13;;;;;;;;;;;17.70;93.20;;;;;;5067074;28;19927;-69
2022/09/20 14:35:45;;;;;;;;;;;17.70;93.70;;;;;;5094706;28;19929;-68
2022/09/20 14:38:13;;;;;;;;;;;17.50;94.60;;;;;;5093538;28;20584;-68
2022/09/20 14:40:45;;;;;;;;;;;17.50;94.90;;;;;;5077477;28;19934;-68
2022/09/20 14:43:20;;;;;;;;;;;17.30;94.40;;;;;;5074906;28;19927;-68
2022/09/20 14:45:51;;;;;;;;;;;17.10;95.70;;;;;;5094192;28;20037;-68
2022/09/20 14:48:16;;;;;;;;;;;16.90;95.00;;;;;;5074476;28;19926;-68
2022/09/20 14:50:43;;;;;;;;;;;16.90;95.60;;;;;;5074329;28;20561;-68
2022/09/20 14:53:09;;;;;;;;;;;16.90;96.10;;;;;;5067372;28;19936;-68
2022/09/20 14:55:36;;;;;;;;;;;17.10;95.90;;;;;;5056034;28;19927;-68
2022/09/20 14:58:05;;;;;;;;;;;17.20;96.50;;;;;;5076330;28;19943;-68
2022/09/20 15:00:45;;;;;;;;;;;17.20;95.70;;;;;;5069456;28;19926;-68
2022/09/20 15:03:13;;;;;;;;;;;17.10;95.30;;;;;;5092912;28;19928;-68
2022/09/20 15:05:38;;;;;;;;;;;17.20;94.20;;;;;;5075931;28;19938;-68
2022/09/20 15:08:08;;;;;;;;;;;16.90;93.70;;;;;;5093195;28;19999;-68
2022/09/20 15:10:34;;;;;;;;;;;17.00;93.60;;;;;;5073335;28;20385;-68
2022/09/20 15:12:59;;;;;;;;;;;17.10;94.40;;;;;;5093048;28;19973;-68
2022/09/20 15:15:25;;;;;;;;;;;17.10;94.20;;;;;;5048956;28;19943;-68